createdAt,value
2022-11-20T00:02:43.425Z,101349.44
2022-11-20T00:05:47.293Z,101345.06
2022-11-20T00:08:57.079Z,101346.03
2022-11-20T00:12:00.846Z,101346.88
2022-11-20T00:15:04.791Z,101352.00
2022-11-20T00:18:08.518Z,101345.97
2022-11-20T00:21:16.225Z,101344.28
2022-11-20T00:24:21.282Z,101345.97
2022-11-20T00:27:24.881Z,101345.19
2022-11-20T00:30:28.465Z,101348.63
2022-11-20T00:33:32.513Z,101342.59
2022-11-20T00:36:37.057Z,101340.91
2022-11-20T00:39:42.117Z,101334.06
2022-11-20T00:42:45.720Z,101330.63
2022-11-20T00:45:49.330Z,101342.75
2022-11-20T00:48:53.011Z,101336.78
2022-11-20T00:51:56.569Z,101335.91
2022-11-20T00:55:01.520Z,101336.81
2022-11-20T00:58:06.413Z,101326.44
2022-11-20T01:01:15.877Z,101327.28
2022-11-20T01:04:19.455Z,101328.97
2022-11-20T01:07:23.162Z,101327.28
2022-11-20T01:10:28.209Z,101324.66
2022-11-20T01:13:42.210Z,101324.78
2022-11-20T01:16:49.313Z,101323.91
2022-11-20T01:19:52.924Z,101316.13
2022-11-20T01:22:56.533Z,101316.94
2022-11-20T01:26:03.574Z,101317.75
2022-11-20T01:29:09.369Z,101316.88
2022-11-20T01:32:12.878Z,101311.72
2022-11-20T01:35:16.685Z,101312.56
2022-11-20T01:38:21.074Z,101303.13
2022-11-20T01:41:44.466Z,101301.38
2022-11-20T01:44:56.406Z,101297.97
2022-11-20T01:48:00.214Z,101285.97
2022-11-20T01:51:06.123Z,101288.50
2022-11-20T01:54:16.021Z,101281.66
2022-11-20T01:57:22.668Z,101291.94
2022-11-20T02:00:26.841Z,101284.19
2022-11-20T02:03:30.690Z,101279.00
2022-11-20T02:06:41.051Z,101276.41
2022-11-20T02:09:44.704Z,101268.66
2022-11-20T02:13:08.007Z,101256.56
2022-11-20T02:16:17.439Z,101263.44
2022-11-20T02:19:28.961Z,101266.00
2022-11-20T02:22:42.950Z,101263.34
2022-11-20T02:25:49.559Z,101271.97
2022-11-20T02:28:53.846Z,101264.19
2022-11-20T02:32:00.964Z,101266.00
2022-11-20T02:35:10.985Z,101263.34
2022-11-20T02:38:15.908Z,101261.63
2022-11-20T02:41:21.103Z,101270.25
2022-11-20T02:44:24.728Z,101261.66
2022-11-20T02:47:28.279Z,101267.63
2022-11-20T02:50:32.137Z,101263.34
2022-11-20T02:53:35.710Z,101261.59
2022-11-20T02:56:42.167Z,101256.50
2022-11-20T02:59:45.777Z,101250.44
2022-11-20T03:02:49.413Z,101248.81
2022-11-20T03:05:53.100Z,101241.78
2022-11-20T03:08:57.047Z,101242.66
2022-11-20T03:12:02.069Z,101240.09
2022-11-20T03:15:07.178Z,101232.38
2022-11-20T03:18:11.214Z,101229.00
2022-11-20T03:21:17.630Z,101230.75
2022-11-20T03:24:21.384Z,101225.47
2022-11-20T03:27:26.536Z,101216.06
2022-11-20T03:30:30.957Z,101212.66
2022-11-20T03:33:34.875Z,101210.16
2022-11-20T03:36:41.175Z,101211.78
2022-11-20T03:39:45.821Z,101205.78
2022-11-20T03:42:50.739Z,101213.69
2022-11-20T03:45:54.373Z,101206.69
2022-11-20T03:48:58.686Z,101210.97
2022-11-20T03:52:02.381Z,101202.41
2022-11-20T03:55:06.978Z,101192.91
2022-11-20T03:58:12.594Z,101194.63
2022-11-20T04:01:19.294Z,101188.66
2022-11-20T04:04:22.942Z,101182.59
2022-11-20T04:07:26.531Z,101182.63
2022-11-20T04:10:30.161Z,101189.53
2022-11-20T04:13:35.130Z,101186.91
2022-11-20T04:16:39.074Z,101177.47
2022-11-20T04:19:42.642Z,101175.81
2022-11-20T04:22:46.267Z,101180.16
2022-11-20T04:25:49.831Z,101182.66
2022-11-20T04:28:55.279Z,101174.06
2022-11-20T04:31:58.836Z,101155.22
2022-11-20T04:35:02.365Z,101147.47
2022-11-20T04:38:06.487Z,101147.50
2022-11-20T04:41:19.805Z,101147.53
2022-11-20T04:44:24.698Z,101172.47
2022-11-20T04:47:28.332Z,101178.50
2022-11-20T04:50:31.884Z,101175.84
2022-11-20T04:53:35.721Z,101172.34
2022-11-20T04:56:39.303Z,101172.44
2022-11-20T04:59:44.669Z,101169.06
2022-11-20T05:02:48.489Z,101169.94
2022-11-20T05:05:52.151Z,101181.97
2022-11-20T05:08:55.714Z,101172.50
2022-11-20T05:11:59.330Z,101169.09
2022-11-20T05:15:04.448Z,101162.25
2022-11-20T05:18:08.370Z,101159.72
2022-11-20T05:21:14.708Z,101150.25
2022-11-20T05:24:18.264Z,101150.28
2022-11-20T05:27:22.117Z,101148.56
2022-11-20T05:30:27.145Z,101157.88
2022-11-20T05:33:30.742Z,101143.31
2022-11-20T05:36:34.885Z,101143.31
2022-11-20T05:39:38.435Z,101148.41
2022-11-20T05:42:44.698Z,101146.69
2022-11-20T05:45:56.473Z,101148.41
2022-11-20T05:49:00.376Z,101153.56
2022-11-20T05:52:03.973Z,101148.41
2022-11-20T05:55:08.914Z,101153.66
2022-11-20T05:58:14.113Z,101151.91
2022-11-20T06:01:22.078Z,101145.91
2022-11-20T06:04:26.095Z,101143.38
2022-11-20T06:07:29.923Z,101144.16
2022-11-20T06:10:33.474Z,101142.41
2022-11-20T06:13:41.767Z,101133.84
2022-11-20T06:16:47.455Z,101139.06
2022-11-20T06:19:51.063Z,101124.44
2022-11-20T06:22:54.651Z,101116.72
2022-11-20T06:25:58.254Z,101124.44
2022-11-20T06:29:01.950Z,101123.63
2022-11-20T06:32:07.539Z,101131.28
2022-11-20T06:35:12.097Z,101130.38
2022-11-20T06:38:15.748Z,101122.69
2022-11-20T06:41:22.234Z,101117.53
2022-11-20T06:44:25.820Z,101115.00
2022-11-20T06:47:30.815Z,101104.69
2022-11-20T06:50:34.400Z,101108.09
2022-11-20T06:53:39.412Z,101108.09
2022-11-20T06:56:43.059Z,101103.00
2022-11-20T06:59:46.744Z,101102.94
2022-11-20T07:02:52.006Z,101088.31
2022-11-20T07:05:58.240Z,101101.22
2022-11-20T07:09:02.748Z,101118.47
2022-11-20T07:12:07.279Z,101118.38
2022-11-20T07:15:11.287Z,101117.69
2022-11-20T07:18:16.471Z,101115.84
2022-11-20T07:21:20.118Z,101121.00
2022-11-20T07:24:23.742Z,101117.53
2022-11-20T07:27:27.347Z,101111.06
2022-11-20T07:30:32.205Z,101104.91
2022-11-20T07:33:37.517Z,101110.84
2022-11-20T07:36:41.719Z,101103.13
2022-11-20T07:39:46.363Z,101103.09
2022-11-20T07:42:51.258Z,101103.88
2022-11-20T07:45:57.313Z,101105.66
2022-11-20T07:49:02.303Z,101102.22
2022-11-20T07:52:06.142Z,101105.72
2022-11-20T07:55:12.300Z,101119.50
2022-11-20T07:58:16.065Z,101110.81
2022-11-20T08:01:19.801Z,101114.38
2022-11-20T08:04:24.795Z,101115.19
2022-11-20T08:07:28.436Z,101115.97
2022-11-20T08:10:32.071Z,101128.09
2022-11-20T08:13:55.075Z,101126.34
2022-11-20T08:16:58.702Z,101121.34
2022-11-20T08:20:03.721Z,101132.59
2022-11-20T08:23:09.086Z,101122.34
2022-11-20T08:26:13.033Z,101113.78
2022-11-20T08:29:16.830Z,101122.44
2022-11-20T08:32:20.517Z,101124.31
2022-11-20T08:35:25.854Z,101123.63
2022-11-20T08:38:29.627Z,101130.44
2022-11-20T08:41:34.351Z,101119.22
2022-11-20T08:44:38.119Z,101121.88
2022-11-20T08:47:41.759Z,101116.72
2022-11-20T08:50:46.896Z,101118.44
2022-11-20T08:53:51.110Z,101118.44
2022-11-20T08:56:55.250Z,101116.84
2022-11-20T09:00:06.189Z,101114.19
2022-11-20T09:03:11.081Z,101109.06
2022-11-20T09:06:16.598Z,101111.59
2022-11-20T09:09:20.749Z,101114.22
2022-11-20T09:12:24.850Z,101127.97
2022-11-20T09:15:37.638Z,101124.38
2022-11-20T09:18:41.424Z,101123.63
2022-11-20T09:21:46.621Z,101129.63
2022-11-20T09:24:50.472Z,101121.91
2022-11-20T09:27:58.552Z,101128.13
2022-11-20T09:31:02.978Z,101127.19
2022-11-20T09:34:06.805Z,101124.56
2022-11-20T09:37:11.771Z,101122.00
2022-11-20T09:40:23.838Z,101123.66
2022-11-20T09:43:58.266Z,101116.03
2022-11-20T09:47:10.857Z,101116.81
2022-11-20T09:50:33.646Z,101114.22
2022-11-20T09:54:00.457Z,101110.72
2022-11-20T09:57:12.434Z,101108.13
2022-11-20T10:00:18.704Z,101109.00
2022-11-20T10:03:42.881Z,101107.31
2022-11-20T10:07:30.149Z,101106.50
2022-11-20T10:10:43.465Z,101113.16
2022-11-20T10:14:06.941Z,101106.25
2022-11-20T10:17:22.032Z,101107.00
2022-11-20T10:20:36.814Z,101107.00
2022-11-20T10:24:26.965Z,101105.22
2022-11-20T10:27:58.455Z,101107.88
2022-11-20T10:31:07.154Z,101104.47
2022-11-20T10:34:25.670Z,101100.13
2022-11-20T10:37:33.286Z,101097.59
2022-11-20T10:40:43.042Z,101091.69
2022-11-20T10:43:51.639Z,101094.25
2022-11-20T10:46:55.220Z,101087.00
2022-11-20T10:50:06.010Z,101090.78
2022-11-20T10:53:28.556Z,101092.31
2022-11-20T10:56:46.889Z,101094.81
2022-11-20T11:00:05.755Z,101089.53
2022-11-20T11:03:27.382Z,101097.31
2022-11-20T11:06:39.891Z,101099.91
2022-11-20T11:09:49.657Z,101087.81
2022-11-20T11:12:53.379Z,101085.19
2022-11-20T11:16:00.706Z,101087.03
2022-11-20T11:19:09.163Z,101085.31
2022-11-20T11:22:20.210Z,101087.28
2022-11-20T11:25:31.507Z,101090.72
2022-11-20T11:28:36.286Z,101084.00
2022-11-20T11:31:41.409Z,101083.28
2022-11-20T11:34:45.102Z,101079.78
2022-11-20T11:37:49.963Z,101073.75
2022-11-20T11:40:58.401Z,101064.50
2022-11-20T11:44:36.069Z,101079.75
2022-11-20T11:47:49.514Z,101068.75
2022-11-20T11:50:54.982Z,101070.41
2022-11-20T11:54:01.584Z,101071.22
2022-11-20T11:57:17.596Z,101064.44
2022-11-20T12:00:23.821Z,101065.41
2022-11-20T12:03:37.886Z,101069.66
2022-11-20T12:06:47.474Z,101067.09
2022-11-20T12:09:56.746Z,101065.31
2022-11-20T12:13:10.517Z,101063.56
2022-11-20T12:16:20.132Z,101054.19
2022-11-20T12:19:25.742Z,101051.72
2022-11-20T12:22:43.443Z,101042.34
2022-11-20T12:25:56.558Z,101036.25
2022-11-20T12:29:16.353Z,101031.84
2022-11-20T12:32:59.690Z,101027.56
2022-11-20T12:36:22.743Z,101017.13
2022-11-20T12:39:40.574Z,101019.00
2022-11-20T12:43:24.039Z,101015.41
2022-11-20T12:46:43.699Z,101012.19
2022-11-20T12:50:03.012Z,101013.84
2022-11-20T12:53:21.921Z,101013.91
2022-11-20T12:56:44.079Z,101012.22
2022-11-20T13:00:12.330Z,101014.75
2022-11-20T13:03:41.282Z,101006.97
2022-11-20T13:06:46.909Z,101008.66
2022-11-20T13:09:53.700Z,101008.59
2022-11-20T13:13:06.010Z,101006.88
2022-11-20T13:16:18.698Z,100998.22
2022-11-20T13:19:23.555Z,100999.97
2022-11-20T13:22:28.679Z,100992.31
2022-11-20T13:25:36.012Z,100990.47
2022-11-20T13:28:41.018Z,100999.81
2022-11-20T13:31:48.334Z,100987.81
2022-11-20T13:34:56.356Z,100982.66
2022-11-20T13:38:08.257Z,100986.09
2022-11-20T13:41:32.526Z,100987.66
2022-11-20T13:44:44.994Z,100985.06
2022-11-20T13:47:52.204Z,100979.06
2022-11-20T13:51:33.117Z,100973.91
2022-11-20T13:55:00.061Z,100977.38
2022-11-20T13:58:38.440Z,100968.81
2022-11-20T14:01:45.612Z,100956.75
2022-11-20T14:04:54.034Z,100967.78
2022-11-20T14:07:59.279Z,100978.06
2022-11-20T14:11:18.747Z,100978.06
2022-11-20T14:14:26.360Z,100984.91
2022-11-20T14:17:35.536Z,100973.72
2022-11-20T14:20:41.852Z,100972.00
2022-11-20T14:23:46.002Z,100965.16
2022-11-20T14:26:53.474Z,100965.06
2022-11-20T14:29:58.483Z,100958.03
2022-11-20T14:33:05.903Z,100952.94
2022-11-20T14:36:22.073Z,100945.94
2022-11-20T14:39:32.974Z,100939.81
2022-11-20T14:42:38.395Z,100933.84
2022-11-20T14:45:43.786Z,100938.13
2022-11-20T14:48:53.303Z,100928.50
2022-11-20T14:52:03.531Z,100934.44
2022-11-20T14:55:08.100Z,100936.09
2022-11-20T14:58:25.774Z,100936.00
2022-11-20T15:01:34.096Z,100935.09
2022-11-20T15:04:48.878Z,100930.72
2022-11-20T15:08:11.687Z,100930.56
2022-11-20T15:11:24.337Z,100926.31
2022-11-20T15:14:38.493Z,100920.25
2022-11-20T15:17:43.970Z,100921.03
2022-11-20T15:20:51.098Z,100923.41
2022-11-20T15:24:00.450Z,100921.59
2022-11-20T15:27:04.199Z,100924.13
2022-11-20T15:30:17.922Z,100917.28
2022-11-20T15:33:22.993Z,100917.03
2022-11-20T15:36:26.798Z,100906.63
2022-11-20T15:39:30.507Z,100894.81
2022-11-20T15:42:34.271Z,100891.28
2022-11-20T15:45:42.884Z,100886.94
2022-11-20T15:48:54.365Z,100889.53
2022-11-20T15:51:57.963Z,100883.53
2022-11-20T15:55:04.246Z,100879.06
2022-11-20T15:58:12.015Z,100871.19
2022-11-20T16:01:18.549Z,100861.63
2022-11-20T16:04:23.876Z,100865.06
2022-11-20T16:07:27.790Z,100867.56
2022-11-20T16:10:31.703Z,100865.97
2022-11-20T16:13:52.505Z,100868.41
2022-11-20T16:16:56.259Z,100865.84
2022-11-20T16:20:01.248Z,100858.09
2022-11-20T16:23:05.189Z,100853.78
2022-11-20T16:26:13.249Z,100858.06
2022-11-20T16:29:17.205Z,100856.22
2022-11-20T16:32:20.826Z,100854.47
2022-11-20T16:35:28.166Z,100851.78
2022-11-20T16:38:31.705Z,100862.06
2022-11-20T16:41:37.287Z,100857.78
2022-11-20T16:44:41.352Z,100849.22
2022-11-20T16:47:45.198Z,100857.06
2022-11-20T16:50:53.240Z,100861.34
2022-11-20T16:53:58.580Z,100858.91
2022-11-20T16:57:02.194Z,100859.84
2022-11-20T17:00:06.971Z,100858.19
2022-11-20T17:03:10.838Z,100862.44
2022-11-20T17:06:18.785Z,100867.66
2022-11-20T17:09:22.450Z,100860.78
2022-11-20T17:12:26.101Z,100860.00
2022-11-20T17:15:38.722Z,100861.81
2022-11-20T17:18:43.034Z,100859.19
2022-11-20T17:21:48.090Z,100855.06
2022-11-20T17:24:52.040Z,100850.69
2022-11-20T17:27:56.457Z,100845.50
2022-11-20T17:31:03.990Z,100845.50
2022-11-20T17:34:09.461Z,100839.53
2022-11-20T17:37:14.738Z,100832.63
2022-11-20T17:40:20.923Z,100831.81
2022-11-20T17:43:32.902Z,100830.13
2022-11-20T17:46:49.851Z,100815.50
2022-11-20T17:49:55.083Z,100812.06
2022-11-20T17:53:00.113Z,100817.16
2022-11-20T17:56:21.361Z,100802.47
2022-11-20T17:59:24.930Z,100796.38
2022-11-20T18:02:44.688Z,100799.84
2022-11-20T18:05:48.304Z,100797.16
2022-11-20T18:08:53.488Z,100798.84
2022-11-20T18:11:57.236Z,100793.59
2022-11-20T18:15:00.957Z,100787.53
2022-11-20T18:18:04.726Z,100789.22
2022-11-20T18:21:16.715Z,100783.06
2022-11-20T18:24:22.489Z,100783.84
2022-11-20T18:27:26.195Z,100775.34
2022-11-20T18:30:29.858Z,100772.69
2022-11-20T18:33:34.422Z,100775.97
2022-11-20T18:36:38.145Z,100772.56
2022-11-20T18:39:43.705Z,100780.13
2022-11-20T18:43:04.418Z,100783.63
2022-11-20T18:46:08.242Z,100772.44
2022-11-20T18:49:13.338Z,100768.13
2022-11-20T18:52:16.969Z,100773.16
2022-11-20T18:55:26.933Z,100766.38
2022-11-20T18:58:30.930Z,100756.00
2022-11-20T19:01:35.433Z,100750.75
2022-11-20T19:04:39.524Z,100745.63
2022-11-20T19:07:44.185Z,100744.72
2022-11-20T19:10:51.692Z,100749.81
2022-11-20T19:13:55.329Z,100739.56
2022-11-20T19:16:58.962Z,100740.44
2022-11-20T19:20:02.607Z,100731.81
2022-11-20T19:23:06.209Z,100723.28
2022-11-20T19:26:11.574Z,100726.72
2022-11-20T19:29:17.350Z,100724.13
2022-11-20T19:32:20.963Z,100733.56
2022-11-20T19:35:24.541Z,100726.63
2022-11-20T19:38:28.150Z,100720.53
2022-11-20T19:41:35.051Z,100716.16
2022-11-20T19:44:38.762Z,100717.94
2022-11-20T19:51:11.393Z,100705.84
2022-11-20T19:54:15.657Z,100698.13
2022-11-20T19:57:20.908Z,100703.25
2022-11-20T20:00:31.254Z,100696.41
2022-11-20T20:03:36.434Z,100700.66
2022-11-20T20:06:40.618Z,100698.97
2022-11-20T20:09:44.406Z,100687.72
2022-11-20T20:12:57.904Z,100688.56
2022-11-20T20:16:03.533Z,100695.50
2022-11-20T20:19:07.655Z,100691.22
2022-11-20T20:22:11.327Z,100687.72
2022-11-20T20:25:14.994Z,100687.81
2022-11-20T20:28:19.966Z,100689.47
2022-11-20T20:31:26.050Z,100690.38
2022-11-20T20:34:32.610Z,100693.00
2022-11-20T20:37:36.316Z,100693.84
2022-11-20T20:40:40.204Z,100681.09
2022-11-20T20:44:07.953Z,100676.78
2022-11-20T20:47:11.598Z,100681.88
2022-11-20T20:50:15.449Z,100685.28
2022-11-20T20:53:19.424Z,100693.00
2022-11-20T20:56:23.502Z,100687.16
2022-11-20T20:59:28.630Z,100680.16
2022-11-20T21:02:32.242Z,100676.75
2022-11-20T21:05:41.091Z,100677.66
2022-11-20T21:08:47.718Z,100672.53
2022-11-20T21:11:51.639Z,100676.91
2022-11-20T21:14:56.619Z,100670.06
2022-11-20T21:18:00.338Z,100671.72
2022-11-20T21:21:23.961Z,100670.88
2022-11-20T21:24:29.068Z,100668.25
2022-11-20T21:27:32.691Z,100666.53
2022-11-20T21:31:05.405Z,100663.97
2022-11-20T21:34:23.698Z,100670.00
2022-11-20T21:41:55.619Z,100662.19
2022-11-20T21:45:24.756Z,100653.59
2022-11-20T21:49:02.320Z,100645.81
2022-11-20T21:56:20.594Z,100647.53
2022-11-20T22:00:02.872Z,100653.53
2022-11-20T22:03:41.470Z,100641.44
2022-11-20T22:07:31.827Z,100628.53
2022-11-20T22:11:08.309Z,100638.81
2022-11-20T22:14:40.165Z,100625.03
2022-11-20T22:18:19.560Z,100623.19
2022-11-20T22:21:44.776Z,100623.19
2022-11-20T22:25:35.785Z,100612.06
2022-11-20T22:28:50.087Z,100606.91
2022-11-20T22:32:23.070Z,100615.38
2022-11-20T22:35:41.826Z,100608.53
2022-11-20T22:38:59.614Z,100609.28
2022-11-20T22:42:23.357Z,100612.72
2022-11-20T22:45:37.874Z,100605.81
2022-11-20T22:48:58.884Z,100609.16
2022-11-20T22:52:10.919Z,100615.03
2022-11-20T22:55:32.528Z,100610.00
2022-11-20T22:58:54.170Z,100615.94
2022-11-20T23:02:12.313Z,100613.34
2022-11-20T23:05:38.729Z,100617.63
2022-11-20T23:09:16.741Z,100617.53
2022-11-20T23:12:41.302Z,100603.69
2022-11-20T23:16:09.117Z,100613.13
2022-11-20T23:19:48.220Z,100608.91
2022-11-20T23:23:08.750Z,100604.44
2022-11-20T23:27:06.730Z,100601.75
2022-11-20T23:30:43.513Z,100599.81
2022-11-20T23:34:28.524Z,100596.41
2022-11-20T23:38:12.359Z,100601.63
2022-11-20T23:42:00.266Z,100596.41
2022-11-20T23:45:34.396Z,100599.75
2022-11-20T23:49:19.786Z,100599.59
2022-11-20T23:53:09.779Z,100592.66
2022-11-20T23:56:37.453Z,100597.56
